Airfield :
LOGIN :

Register | Disclaimer

   EN    FR    IT 

 










Legend :    VFR   Marginal VFR   IFR   Intensive IFR   Very Intensive IFR
Visi :
Ceiling :
>= 8 km
>= 3000ft
5 to 8 km
1000 to 3000 ft
1500m to 5 km
500 to 1000 ft
800 to 1500m
200 to 500 ft
< 800m
< 200 ft
Symbols :   Thunderstorms  Fog  Heavy snow  Heavy precipitations  Wind > 20 kt
SIGMETs :     Misc.  Thunderstorms  Icing  Turbulence  Mountain Waves  Volcanic Ashes







- Airport Elevation : 1106 ft
- Download approach charts


LFSO - Nancy / Ochey

CURRENT METAR :
  • 241730Z AUTO 35007KT 310V010 CAVOK 22/12 Q1023 NOSIG

EXPIRED METARs :
  • 241700Z AUTO 34008KT 300V010 CAVOK 23/12 Q1023 NOSIG
  • 241630Z AUTO 35007KT 300V020 CAVOK 23/11 Q1023 NOSIG
  • 241600Z AUTO 35008KT CAVOK 22/11 Q1023 NOSIG
  • 241530Z AUTO 34008KT 300V020 CAVOK 23/11 Q1023 NOSIG
  • 241500Z AUTO 34007KT 300V040 CAVOK 24/11 Q1024 NOSIG

TAF TAF LFSO
Valid from the 24 at 15:00 until the 25 at 15:00 UTC


241400Z 2415/2515 36010KT CAVOK
No reported NOTAMs for that airfield.



MET'MAP, your aeronautical weather chart ! - Copyright ORBIFLY December 2007 - Disclaimer

ORBIFLY MET'MAP TEAM :

Programming & Development : Alexandra Zaïnal
Concept & Development : Baudouin d'Aumeries
Co-Development & Prog : Marc-Olivier Méhu
Technical & hardware support : Manuel Goepfert

Contact : metmap@orbifly.com




SOURCES & CREDITS :

   NOAA